Portada
METAR-TAF:

METAR-TAF

Aeropuertos :

Almagro, España

Base de Almagro

latitud: 38-57-11N, longitud: 3-44-29W, altitud: 629 m

METAR: falta

Hora: 00:41 (22:41 UTC)

Pronóstico

El informe se hizo hace 5 horas y 41 minutos, a las 17:00 UTC
Pronóstico válido del 22 a las 18 UTC al 23 a las 03 UTC
Viento 5 kt con dirección variable
Visibilidad 10 km o más
sin nubes por debajo de 1500 m y sin presencia de cumulonimbus.
Temporalmente
del 22 a las 18 UTC al 22 a las 20 UTC
Viento 10 kt del oeste

TAF: LEAO 221700Z 2218/2303 VRB05KT CAVOK TEMPO 2218/2220 27010KT

Observaciones y pronósticos meteorológicos de más de 4000 aeropuertos (mensajes METAR y TAF).

Los puntos amarillos y rojos representan las estaciones disponibles.

Ponga el ratón en el punto deseado para ver el nombre de la estación.

Haga clic para ver las observaciones y los pronósticos meteorológicos.

Para cambiar el mapa : haga clic en los botones verdes con una cruz de color negro para hacer un zoom, en el botón verde con un guión para alejar o en las flechas verdes para mapas adyacentes.


METAR-TAF: